Terminal Aerodrome Forecast
Issued by NWS

Home | Current Version | Previous Version | Text Only | Print | Product List | Glossary On
Versions: 1 2 3 4 5 6 7 8 9 10 11 12 13 14 15 16 17
000
FTUS43 KPAH 261908 AAB
TAFCGI
TAF AMD
KCGI 261908Z 2619/2718 VRB05KT P6SM VCTS SCT040CB BKN250
      TEMPO 2619/2622 34010G16KT 4SM -TSRA BKN030CB
     FM270000 12004KT P6SM SCT040 BKN150
     FM270900 00000KT 4SM BR BKN150
     FM271300 14003KT P6SM BKN150=

USA.gov is the U.S. government's official web portal to all federal, state and local government web resources and services.